Time;durP1;ratioP1;P1;durP2;ratioP2;P2;SDS_P1;SDS_P2;PMS_P1;PMS_P2;Temp;Humidity;BMP_temperature;BMP_pressure;BME280_temperature;BME280_humidity;BME280_pressure;Samples;Min_cycle;Max_cycle;Signal;HPM_P1;HPM_P2
2022/05/26 00:01:22;;;;;;;2.83;1.52;;;;;;;11.18;51.62;100887.03;4993365;28;20141;-70
2022/05/26 00:03:49;;;;;;;4.38;1.80;;;;;;;11.11;51.72;100891.38;4994270;28;20058;-69
2022/05/26 00:06:22;;;;;;;5.65;1.73;;;;;;;11.15;51.94;100887.34;5029180;28;20049;-69
2022/05/26 00:08:49;;;;;;;3.30;1.60;;;;;;;11.11;51.76;100876.09;5035013;28;20060;-70
2022/05/26 00:11:21;;;;;;;9.10;1.92;;;;;;;11.05;52.03;100883.94;5034245;28;20133;-69
2022/05/26 00:13:48;;;;;;;4.28;1.90;;;;;;;10.99;52.27;100880.03;5034548;28;20536;-70
2022/05/26 00:16:16;;;;;;;3.60;1.98;;;;;;;10.92;52.19;100877.16;5034351;28;20091;-69
2022/05/26 00:18:43;;;;;;;3.50;1.60;;;;;;;11.05;51.96;100879.41;5034769;28;20171;-70
2022/05/26 00:21:10;;;;;;;3.03;1.80;;;;;;;11.01;52.05;100877.22;5034853;28;20089;-69
2022/05/26 00:23:36;;;;;;;7.32;2.13;;;;;;;11.01;52.05;100878.06;5034441;28;20065;-69
2022/05/26 00:26:03;;;;;;;4.88;2.00;;;;;;;10.93;52.37;100878.00;5035560;28;20477;-69
2022/05/26 00:28:31;;;;;;;2.97;1.50;;;;;;;10.88;52.52;100883.00;5034499;28;20077;-69
2022/05/26 00:30:58;;;;;;;7.80;2.28;;;;;;;10.77;52.83;100886.78;5035291;28;20145;-69
2022/05/26 00:33:25;;;;;;;6.07;2.33;;;;;;;10.75;52.96;100872.69;5033745;28;20136;-69
2022/05/26 00:35:52;;;;;;;3.58;1.80;;;;;;;10.76;53.07;100877.06;5034151;28;20133;-69
2022/05/26 00:38:19;;;;;;;6.47;1.83;;;;;;;10.81;53.07;100871.22;5034091;28;20136;-69
2022/05/26 00:40:47;;;;;;;5.72;2.00;;;;;;;10.83;53.20;100874.59;5034129;28;20140;-69
2022/05/26 00:43:13;;;;;;;3.40;2.30;;;;;;;10.81;53.29;100874.72;5034667;28;20060;-69
2022/05/26 00:45:56;;;;;;;3.38;1.65;;;;;;;10.85;53.03;100865.38;5034136;28;20056;-69
2022/05/26 00:48:26;;;;;;;6.22;1.67;;;;;;;10.85;52.93;100868.03;5034108;28;20136;-68
2022/05/26 00:50:59;;;;;;;2.33;1.45;;;;;;;10.81;52.87;100874.72;5033729;28;20172;-68
2022/05/26 00:53:34;;;;;;;2.58;1.50;;;;;;;10.79;53.16;100884.81;5033850;28;20121;-69
2022/05/26 00:56:11;;;;;;;5.05;3.05;;;;;;;10.89;53.13;100871.25;5034107;28;20060;-69
2022/05/26 00:58:42;;;;;;;6.90;1.75;;;;;;;10.88;52.83;100875.78;5034085;28;20088;-69
2022/05/26 01:01:10;;;;;;;2.95;1.70;;;;;;;10.93;52.61;100875.34;5033971;28;20052;-70
2022/05/26 01:03:46;;;;;;;7.75;1.95;;;;;;;10.88;52.81;100880.31;5033614;28;20056;-69
2022/05/26 01:09:38;;;;;;;5.65;1.40;;;;;;;10.81;52.95;100881.94;5034065;28;20060;-70
2022/05/26 01:12:05;;;;;;;2.55;1.60;;;;;;;10.81;53.00;100880.09;5034002;28;20512;-70
2022/05/26 01:14:36;;;;;;;4.07;1.10;;;;;;;10.78;53.14;100876.91;5034280;28;20158;-70
2022/05/26 01:17:15;;;;;;;6.18;1.60;;;;;;;10.86;52.95;100880.50;5033583;28;20081;-70
2022/05/26 01:20:06;;;;;;;4.97;1.92;;;;;;;10.81;53.10;100881.94;5033909;28;20156;-70
2022/05/26 01:23:11;;;;;;;8.40;2.17;;;;;;;10.83;53.10;100886.16;5033661;28;20109;-71
2022/05/26 01:25:57;;;;;;;3.28;1.25;;;;;;;10.76;52.99;100879.75;5034577;28;20295;-70
2022/05/26 01:29:05;;;;;;;2.53;1.30;;;;;;;10.85;53.09;100877.94;5033622;28;20136;-70
2022/05/26 01:32:00;;;;;;;3.85;1.10;;;;;;;10.77;53.11;100881.41;5033869;28;20459;-70
2022/05/26 01:34:42;;;;;;;2.85;1.45;;;;;;;10.77;53.19;100880.59;5034175;28;20512;-70
2022/05/26 01:37:19;;;;;;;1.92;1.20;;;;;;;10.77;52.99;100876.06;5033929;28;20139;-70
2022/05/26 01:39:45;;;;;;;1.35;1.00;;;;;;;10.84;52.97;100871.75;5034339;28;20108;-70
2022/05/26 01:42:49;;;;;;;4.30;1.15;;;;;;;10.87;52.80;100876.78;5034408;28;20053;-70
2022/05/26 01:45:33;;;;;;;1.92;1.17;;;;;;;10.77;53.07;100873.38;5034119;28;20057;-70
2022/05/26 01:48:14;;;;;;;2.58;1.40;;;;;;;10.83;52.77;100875.44;5034931;28;20468;-70
2022/05/26 01:51:00;;;;;;;5.72;1.52;;;;;;;10.83;52.51;100872.75;5034630;28;20140;-70
2022/05/26 01:53:54;;;;;;;2.47;1.10;;;;;;;10.85;52.44;100861.84;5033860;28;20468;-70
2022/05/26 01:56:27;;;;;;;1.45;1.10;;;;;;;10.86;52.17;100869.75;5033833;28;20096;-70
2022/05/26 01:59:18;;;;;;;9.10;1.13;;;;;;;10.87;51.95;100870.59;5034284;28;20087;-70
2022/05/26 02:01:52;;;;;;;5.47;1.40;;;;;;;10.90;51.68;100868.44;5034259;28;20140;-70
2022/05/26 02:04:24;;;;;;;3.20;1.27;;;;;;;10.95;51.46;100863.41;5033880;28;20053;-70
2022/05/26 02:06:59;;;;;;;4.72;1.13;;;;;;;10.94;51.32;100863.59;5033882;28;20453;-70
2022/05/26 02:09:33;;;;;;;3.63;1.27;;;;;;;10.98;51.37;100868.47;5034197;28;20132;-70
2022/05/26 02:12:07;;;;;;;1.70;1.08;;;;;;;11.06;50.98;100874.88;5034628;28;20490;-70
2022/05/26 02:14:45;;;;;;;4.75;1.27;;;;;;;11.09;50.51;100871.88;5033901;28;20129;-69
2022/05/26 02:17:18;;;;;;;1.80;1.00;;;;;;;11.07;50.34;100873.91;5037046;28;20128;-69
2022/05/26 02:20:13;;;;;;;5.55;1.17;;;;;;;11.19;52.26;100876.13;5038087;28;20132;-66
2022/05/26 02:22:49;;;;;;;4.72;1.42;;;;;;;11.32;52.28;100869.47;5037396;28;20049;-67
2022/05/26 02:25:19;;;;;;;4.38;1.30;;;;;;;11.40;50.73;100873.03;5037578;28;20478;-67
2022/05/26 02:27:50;;;;;;;1.65;0.90;;;;;;;11.59;52.85;100868.41;5037115;28;20050;-67
2022/05/26 02:30:17;;;;;;;7.47;1.30;;;;;;;12.10;53.49;100867.34;5037497;28;20124;-67
2022/05/26 02:32:50;;;;;;;2.65;0.88;;;;;;;12.26;52.77;100869.22;5037325;28;20454;-68
2022/05/26 02:35:22;;;;;;;2.78;0.68;;;;;;;13.69;49.52;100869.38;5037682;28;20057;-66
2022/05/26 02:37:50;;;;;;;;;;;;;;;13.24;46.50;100869.06;5037225;28;20041;-68
2022/05/26 02:40:17;;;;;;;2.10;0.75;;;;;;;12.75;47.23;100866.50;5036919;28;19928;-66
2022/05/26 02:42:47;;;;;;;2.30;0.70;;;;;;;12.53;47.59;100869.88;5037524;28;20050;-66
2022/05/26 02:45:19;;;;;;;5.72;1.10;;;;;;;12.45;47.56;100868.03;5036154;28;20132;-66
2022/05/26 02:48:19;;;;;;;3.55;1.13;;;;;;;12.26;47.44;100879.97;5036930;28;20045;-66
2022/05/26 02:51:02;;;;;;;5.47;1.17;;;;;;;12.17;47.29;100872.88;5036750;28;20476;-66
2022/05/26 02:53:54;;;;;;;4.30;0.88;;;;;;;12.14;48.41;100865.16;5036386;28;20054;-67
2022/05/26 02:57:00;;;;;;;5.35;1.10;;;;;;;12.04;48.18;100867.19;5036211;28;20099;-66
2022/05/26 02:59:43;;;;;;;5.30;1.02;;;;;;;12.00;47.89;100865.81;5036283;28;20517;-66
2022/05/26 03:02:34;;;;;;;2.92;1.17;;;;;;;12.00;48.26;100865.81;5036336;28;20053;-67
2022/05/26 03:05:08;;;;;;;1.55;0.93;;;;;;;12.05;48.53;100871.56;5036086;28;20068;-66
2022/05/26 03:07:40;;;;;;;3.40;1.00;;;;;;;12.07;48.37;100865.00;5035979;28;20401;-67
2022/05/26 03:10:07;;;;;;;;;;;;;;;12.09;48.75;100868.34;5036097;28;20470;-66
2022/05/26 03:12:35;;;;;;;3.67;0.88;;;;;;;12.08;48.50;100864.00;5036034;28;20020;-68
2022/05/26 03:15:04;;;;;;;4.32;1.20;;;;;;;12.07;48.46;100858.75;5035932;28;20180;-67
2022/05/26 03:17:30;;;;;;;3.63;0.98;;;;;;;12.14;48.46;100859.78;5035952;28;20468;-67
2022/05/26 03:19:57;;;;;;;7.00;1.17;;;;;;;12.22;48.83;100867.03;5035914;28;20568;-67
2022/05/26 03:22:23;;;;;;;7.18;1.10;;;;;;;12.23;48.81;100860.63;5035398;28;20148;-67
2022/05/26 03:24:51;;;;;;;3.92;1.10;;;;;;;12.26;48.78;100860.31;5035825;28;20136;-67
2022/05/26 03:27:18;;;;;;;10.80;1.20;;;;;;;12.20;48.59;100860.97;5035608;28;20076;-67
2022/05/26 03:29:44;;;;;;;2.53;0.93;;;;;;;12.22;48.55;100867.88;5035886;28;20137;-67
2022/05/26 03:32:11;;;;;;;6.25;1.20;;;;;;;12.17;48.63;100864.81;5035245;28;20053;-67
2022/05/26 03:42:59;;;;;;;6.28;1.10;;;;;;;12.21;48.25;100866.19;5007992;28;20054;-67
2022/05/26 03:45:25;;;;;;;8.52;0.90;;;;;;;12.16;48.85;100865.84;5035174;28;20160;-67
2022/05/26 03:47:52;;;;;;;1.27;0.80;;;;;;;12.19;48.86;100867.38;5035434;28;20129;-66
2022/05/26 03:50:18;;;;;;;13.43;2.08;;;;;;;12.28;48.75;100863.66;5035375;28;20073;-66
2022/05/26 03:52:45;;;;;;;3.97;1.23;;;;;;;12.23;48.64;100861.47;5035933;28;20057;-66
2022/05/26 03:55:12;;;;;;;5.93;1.25;;;;;;;12.23;48.98;100864.16;5035873;28;20076;-66
2022/05/26 03:57:38;;;;;;;1.88;1.00;;;;;;;12.27;48.94;100870.88;5035254;28;20132;-67
2022/05/26 04:00:06;;;;;;;3.13;0.90;;;;;;;12.27;49.49;100872.75;5035284;28;20562;-67
2022/05/26 04:02:34;;;;;;;4.57;1.10;;;;;;;12.33;49.74;100886.38;5035433;28;20081;-67
2022/05/26 04:05:00;;;;;;;3.53;0.85;;;;;;;12.34;49.45;100877.28;5035320;28;20461;-67
2022/05/26 04:07:27;;;;;;;3.22;1.70;;;;;;;12.37;49.22;100876.09;5035092;28;20150;-67
2022/05/26 04:09:53;;;;;;;3.08;1.13;;;;;;;12.40;49.58;100884.69;5034676;28;20128;-67
2022/05/26 04:12:20;;;;;;;2.10;0.90;;;;;;;12.39;49.86;100885.69;5035454;28;20053;-67
2022/05/26 04:14:47;;;;;;;5.07;1.35;;;;;;;12.44;49.89;100881.66;5034744;28;20053;-67
2022/05/26 04:17:13;;;;;;;2.03;0.80;;;;;;;12.55;50.04;100884.00;5035169;28;20557;-68
2022/05/26 04:19:43;;;;;;;4.35;0.88;;;;;;;12.48;49.92;100885.69;5034872;28;20081;-68
2022/05/26 04:22:17;;;;;;;3.72;1.08;;;;;;;12.53;50.21;100884.19;5034726;28;20049;-68
2022/05/26 04:24:46;;;;;;;9.80;0.95;;;;;;;12.56;50.20;100889.22;5034122;28;20469;-67
2022/05/26 04:27:14;;;;;;;3.97;1.10;;;;;;;12.55;50.19;100889.38;5035200;28;20077;-67
2022/05/26 04:29:41;;;;;;;1.90;1.17;;;;;;;12.55;49.96;100884.84;5034945;28;20132;-67
2022/05/26 04:32:08;;;;;;;2.78;0.93;;;;;;;12.68;50.35;100886.19;5035289;28;20128;-67
2022/05/26 04:34:35;;;;;;;3.35;0.85;;;;;;;12.69;50.62;100890.53;5034903;28;20110;-67
2022/05/26 04:37:01;;;;;;;3.20;1.25;;;;;;;12.63;50.00;100889.41;5034526;28;20049;-67
2022/05/26 04:39:28;;;;;;;5.18;1.20;;;;;;;12.68;50.64;100905.84;5034042;28;20136;-67
2022/05/26 04:41:59;;;;;;;3.08;1.27;;;;;;;12.76;50.36;100905.88;5034066;28;20111;-67
2022/05/26 04:44:32;;;;;;;4.03;1.40;;;;;;;12.90;50.49;100906.19;5034296;28;20088;-66
2022/05/26 04:46:59;;;;;;;4.63;1.00;;;;;;;12.94;50.23;100905.69;5034102;28;20050;-66
2022/05/26 04:49:27;;;;;;;2.83;1.10;;;;;;;12.93;50.24;100908.56;5034811;28;20407;-67
2022/05/26 04:51:54;;;;;;;3.30;1.15;;;;;;;12.99;50.09;100900.63;5034422;28;20148;-66
2022/05/26 04:54:21;;;;;;;5.60;1.95;;;;;;;12.91;50.32;100902.50;5034315;28;20084;-67
2022/05/26 04:56:49;;;;;;;6.55;2.42;;;;;;;12.96;50.30;100900.13;5034868;28;20053;-68
2022/05/26 04:59:15;;;;;;;4.05;1.10;;;;;;;12.99;50.64;100902.50;5034513;28;20489;-68
2022/05/26 05:01:42;;;;;;;5.05;1.33;;;;;;;13.07;50.65;100905.16;5034287;28;20409;-67
2022/05/26 05:04:09;;;;;;;7.70;1.52;;;;;;;13.05;50.49;100913.41;5034014;28;20045;-67
2022/05/26 05:06:35;;;;;;;6.63;1.25;;;;;;;13.14;50.39;100922.31;5034101;28;20516;-66
2022/05/26 05:09:03;;;;;;;8.75;1.80;;;;;;;13.21;49.94;100922.47;5034063;28;20077;-66
2022/05/26 05:11:29;;;;;;;11.68;2.25;;;;;;;13.20;50.60;100921.63;5034989;28;20132;-66
2022/05/26 05:13:56;;;;;;;5.60;3.03;;;;;;;13.27;50.28;100917.22;5034041;28;20443;-67
2022/05/26 05:16:27;;;;;;;5.43;1.23;;;;;;;13.32;50.40;100916.72;5034486;28;20068;-68
2022/05/26 05:18:55;;;;;;;5.38;1.50;;;;;;;13.29;50.32;100914.38;5034187;28;20045;-67
2022/05/26 05:21:32;;;;;;;5.80;1.17;;;;;;;13.31;50.09;100913.16;5034715;28;20057;-66
2022/05/26 05:24:08;;;;;;;3.97;1.30;;;;;;;13.23;50.55;100921.28;5033966;28;20057;-68
2022/05/26 05:26:37;;;;;;;4.78;1.30;;;;;;;13.25;50.54;100927.34;5034823;28;20147;-66
2022/05/26 05:29:10;;;;;;;4.47;1.10;;;;;;;13.24;50.84;100925.66;5034076;28;20182;-67
2022/05/26 05:31:42;;;;;;;3.55;1.27;;;;;;;13.33;50.99;100929.16;5034033;28;20053;-67
2022/05/26 05:34:20;;;;;;;5.78;1.33;;;;;;;13.34;51.07;100926.28;5034025;28;20513;-67
2022/05/26 05:36:47;;;;;;;8.75;1.20;;;;;;;13.31;51.06;100932.03;5034724;28;20140;-67
2022/05/26 05:39:13;;;;;;;8.38;1.52;;;;;;;13.24;51.47;100933.72;5034034;28;20132;-67
2022/05/26 05:41:40;;;;;;;4.43;1.30;;;;;;;13.30;51.46;100926.81;5034046;28;20060;-67
2022/05/26 05:44:07;;;;;;;6.68;1.63;;;;;;;13.44;50.94;100938.72;5034960;28;20060;-67
2022/05/26 05:46:34;;;;;;;4.28;1.10;;;;;;;13.53;50.85;100935.00;5033578;28;20144;-67
2022/05/26 05:49:04;;;;;;;3.78;1.27;;;;;;;13.64;50.62;100929.22;5033640;28;20473;-68
2022/05/26 05:51:35;;;;;;;6.78;1.58;;;;;;;13.62;51.17;100925.84;5035723;28;20049;-68
2022/05/26 05:54:02;;;;;;;;;;;;;;;13.73;50.73;100927.31;5037950;28;20045;-67
2022/05/26 05:56:28;;;;;;;5.32;1.70;;;;;;;13.85;50.67;100933.19;5037192;28;19971;-67
2022/05/26 05:58:55;;;;;;;6.47;1.58;;;;;;;14.10;50.96;100932.03;5038035;28;20111;-68
2022/05/26 06:01:22;;;;;;;5.43;1.70;;;;;;;13.98;50.19;100942.41;5037507;28;20049;-69
2022/05/26 06:03:48;;;;;;;7.32;1.88;;;;;;;13.63;51.31;100938.34;5037661;28;20053;-69
2022/05/26 06:06:15;;;;;;;10.70;1.83;;;;;;;13.49;51.98;100939.03;5037328;28;20148;-70
2022/05/26 06:08:41;;;;;;;12.30;2.08;;;;;;;13.53;51.58;100932.31;5037775;28;20543;-70
2022/05/26 06:11:08;;;;;;;4.35;1.75;;;;;;;13.72;51.29;100939.97;5037585;28;20081;-71
2022/05/26 06:13:34;;;;;;;7.13;1.65;;;;;;;13.67;51.48;100947.75;5037458;28;20532;-68
2022/05/26 06:16:01;;;;;;;6.20;1.55;;;;;;;13.42;51.91;100951.53;5037632;28;20053;-70
2022/05/26 06:18:28;;;;;;;11.20;2.28;;;;;;;13.51;51.92;100947.81;5037568;28;20053;-70
2022/05/26 06:21:06;;;;;;;8.90;1.70;;;;;;;13.61;51.80;100948.44;5037788;28;20152;-70
2022/05/26 06:23:33;;;;;;;4.13;1.70;;;;;;;13.68;51.95;100952.13;5037543;28;20053;-70
2022/05/26 06:26:00;;;;;;;6.60;2.17;;;;;;;13.79;51.11;100942.81;5037520;28;20046;-70
2022/05/26 06:31:11;;;;;;;6.75;2.10;;;;;;;13.74;51.45;100948.72;5036947;28;20084;-70
2022/05/26 06:39:28;;;;;;;3.33;1.50;;;;;;;13.46;52.70;100960.97;4995657;28;20069;-70
2022/05/26 06:42:06;;;;;;;4.32;1.75;;;;;;;13.63;52.80;100946.41;4995797;28;20054;-70
2022/05/26 06:44:38;;;;;;;7.78;1.80;;;;;;;13.62;52.48;100944.72;4995367;28;20120;-70
2022/05/26 06:47:17;;;;;;;7.15;2.40;;;;;;;13.72;52.13;100960.69;4995445;28;20093;-70
2022/05/26 06:49:44;;;;;;;8.38;1.98;;;;;;;13.82;51.91;100958.66;4995964;28;20558;-71
2022/05/26 06:52:12;;;;;;;5.82;1.75;;;;;;;13.88;51.79;100957.97;4995291;28;20054;-70
2022/05/26 06:54:41;;;;;;;6.05;1.77;;;;;;;13.84;51.74;100962.03;4996265;28;20451;-71
2022/05/26 06:57:09;;;;;;;5.05;2.00;;;;;;;13.79;52.07;100970.63;4995470;28;20117;-69
2022/05/26 06:59:37;;;;;;;6.82;2.15;;;;;;;13.51;52.66;100972.06;4995083;28;20077;-70
2022/05/26 07:02:06;;;;;;;7.72;2.17;;;;;;;13.48;53.20;100964.31;4995174;28;20128;-70
2022/05/26 07:04:33;;;;;;;7.25;2.00;;;;;;;13.62;52.40;100970.84;4996001;28;20455;-70
2022/05/26 07:07:01;;;;;;;6.25;2.65;;;;;;;13.51;52.84;100970.19;4995365;28;20057;-70
2022/05/26 07:09:28;;;;;;;8.43;4.20;;;;;;;13.48;53.20;100983.19;5002080;28;20077;-70
2022/05/26 07:11:54;;;;;;;5.88;2.40;;;;;;;13.45;53.64;100981.66;5036859;28;20503;-70
2022/05/26 07:14:21;;;;;;;9.18;2.40;;;;;;;13.24;54.15;100974.13;5019363;28;20543;-70
2022/05/26 07:16:47;;;;;;;9.10;2.45;;;;;;;13.24;54.51;100984.91;5036482;28;20100;-69
2022/05/26 07:19:16;;;;;;;7.32;2.05;;;;;;;13.30;55.43;100999.56;5036796;28;20045;-69
2022/05/26 07:21:45;;;;;;;7.90;2.08;;;;;;;13.31;56.63;101010.16;5037525;28;20119;-71
2022/05/26 07:24:20;;;;;;;5.78;2.10;;;;;;;13.09;58.30;101018.97;5037318;28;20059;-70
2022/05/26 07:26:48;;;;;;;7.72;2.47;;;;;;;12.85;60.55;101025.19;5038208;28;20045;-70
2022/05/26 07:29:16;;;;;;;6.38;2.60;;;;;;;12.75;62.25;101041.50;5037924;28;20140;-69
2022/05/26 07:31:43;;;;;;;6.22;2.38;;;;;;;12.31;64.39;101049.78;5037397;28;20132;-69
2022/05/26 07:34:15;;;;;;;6.38;2.92;;;;;;;12.19;65.88;101055.63;5036060;28;20091;-70
2022/05/26 07:42:16;;;;;;;5.72;3.08;;;;;;;12.01;68.78;101055.75;5035661;28;20053;-71
2022/05/26 07:44:45;;;;;;;13.25;2.90;;;;;;;12.03;68.90;101051.03;5035580;28;20077;-69
2022/05/26 07:47:11;;;;;;;10.38;3.53;;;;;;;12.00;69.29;101057.56;5035968;28;20057;-69
2022/05/26 07:49:43;;;;;;;6.50;3.30;;;;;;;11.89;69.87;101049.78;5035893;28;20046;-70
2022/05/26 07:52:16;;;;;;;5.90;3.15;;;;;;;11.84;70.73;101066.41;5035488;28;20045;-70
2022/05/26 07:54:43;;;;;;;8.77;3.90;;;;;;;11.68;71.75;101053.72;5035795;28;20468;-70
2022/05/26 07:57:22;;;;;;;11.68;3.92;;;;;;;11.73;72.39;101049.72;5036019;28;20045;-71
2022/05/26 07:59:50;;;;;;;7.55;4.18;;;;;;;11.46;73.70;101049.69;5035795;28;20129;-71
2022/05/26 08:02:18;;;;;;;9.00;4.15;;;;;;;11.78;72.67;101039.31;5035552;28;20085;-70
2022/05/26 08:04:44;;;;;;;6.68;4.38;;;;;;;12.23;72.14;101036.31;5036331;28;20568;-71
2022/05/26 08:07:11;;;;;;;10.68;4.85;;;;;;;12.55;70.38;101042.78;5035306;28;20114;-70
2022/05/26 08:09:38;;;;;;;5.47;4.03;;;;;;;12.46;70.39;101039.25;5035690;28;20132;-70
2022/05/26 08:12:13;;;;;;;6.20;3.35;;;;;;;12.51;70.07;101044.97;5017838;28;20061;-70
2022/05/26 08:14:41;;;;;;;7.20;3.42;;;;;;;12.79;69.63;101039.31;5034426;28;20049;-70
2022/05/26 08:17:11;;;;;;;7.63;4.00;;;;;;;12.89;69.22;101045.38;5035184;28;20053;-70
2022/05/26 08:19:38;;;;;;;5.70;3.40;;;;;;;13.00;67.49;101053.13;5035295;28;20077;-69
2022/05/26 08:22:05;;;;;;;5.07;3.10;;;;;;;13.30;66.14;101048.91;5034782;28;20145;-70
2022/05/26 08:24:31;;;;;;;10.40;3.05;;;;;;;13.69;64.49;101058.09;5034720;28;20053;-69
2022/05/26 08:26:58;;;;;;;4.50;2.40;;;;;;;14.11;61.59;101060.50;5018061;28;20141;-69
2022/05/26 08:29:24;;;;;;;3.70;2.28;;;;;;;14.44;60.14;101060.38;5036659;28;20440;-69
2022/05/26 08:31:51;;;;;;;4.70;2.22;;;;;;;14.68;59.79;101068.31;5035261;28;20113;-70
2022/05/26 08:34:18;;;;;;;3.33;1.98;;;;;;;15.16;58.18;101050.09;5034939;28;20053;-70
2022/05/26 08:36:45;;;;;;;5.13;2.10;;;;;;;15.78;55.44;101059.81;5034597;28;20088;-70
2022/05/26 08:39:11;;;;;;;3.97;1.83;;;;;;;16.03;54.40;101064.94;5034855;28;20128;-70
2022/05/26 08:41:40;;;;;;;3.72;1.00;;;;;;;16.62;52.15;101064.84;5035257;28;20126;-69
2022/05/26 08:44:16;;;;;;;3.92;1.10;;;;;;;17.23;49.25;101064.34;5035136;28;20084;-69
2022/05/26 08:46:48;;;;;;;1.55;0.95;;;;;;;17.80;47.93;101069.63;5018766;28;20085;-71
2022/05/26 08:49:26;;;;;;;3.38;1.00;;;;;;;17.36;49.13;101075.34;5036218;28;20140;-69
2022/05/26 08:52:19;;;;;;;6.32;1.10;;;;;;;17.34;49.33;101072.00;5034813;28;20072;-70
2022/05/26 08:55:02;;;;;;;1.55;1.00;;;;;;;17.92;47.91;101059.03;5034796;28;20053;-70
2022/05/26 08:58:06;;;;;;;4.60;1.58;;;;;;;17.51;48.18;101061.69;5035127;28;20045;-69
2022/05/26 09:00:37;;;;;;;1.90;1.08;;;;;;;18.24;46.27;101064.88;5035112;28;20132;-70
2022/05/26 09:03:30;;;;;;;3.23;0.73;;;;;;;18.60;45.03;101066.44;5035367;28;20052;-69
2022/05/26 09:06:18;;;;;;;4.07;1.20;;;;;;;18.16;45.27;101067.75;5035312;28;20053;-69
2022/05/26 09:12:55;;;;;;;3.42;0.95;;;;;;;17.83;44.88;101073.81;5034690;28;20053;-69
2022/05/26 09:14:34;;;;;;;3.35;1.20;;;;;;;17.59;44.97;101081.38;5033875;28;20136;-69
2022/05/26 09:17:06;;;;;;;2.13;0.85;;;;;;;17.92;44.32;101074.47;5033988;28;20132;-69
2022/05/26 09:19:48;;;;;;;9.80;5.72;;;;;;;18.27;43.42;101086.16;5033722;28;20404;-69
2022/05/26 09:22:46;;;;;;;7.28;1.70;;;;;;;18.25;42.87;101085.53;5034080;28;20072;-69
2022/05/26 09:25:34;;;;;;;4.25;1.60;;;;;;;18.05;43.21;101074.56;5011473;28;20093;-69
2022/05/26 09:28:01;;;;;;;3.67;1.17;;;;;;;18.45;42.47;101083.75;5018094;28;20088;-70
2022/05/26 09:30:31;;;;;;;7.70;1.13;;;;;;;18.28;41.73;101082.44;5017972;28;20073;-70
2022/05/26 09:32:58;;;;;;;3.05;0.90;;;;;;;18.58;41.11;101074.78;5018383;28;20136;-69
2022/05/26 09:35:31;;;;;;;8.20;3.03;;;;;;;18.23;41.20;101076.75;5018076;28;20133;-69
2022/05/26 09:38:03;;;;;;;3.63;1.30;;;;;;;18.27;40.87;101080.72;5017588;28;20072;-69
2022/05/26 09:40:38;;;;;;;3.35;1.05;;;;;;;18.31;39.15;101073.88;5017960;28;20134;-69
2022/05/26 09:43:16;;;;;;;1.70;0.90;;;;;;;18.78;38.67;101080.28;5017597;28;20144;-69
2022/05/26 09:45:45;;;;;;;7.28;1.23;;;;;;;18.37;39.93;101083.91;5017611;28;20054;-70
2022/05/26 09:48:26;;;;;;;3.67;1.08;;;;;;;18.25;40.40;101083.66;5017391;28;20050;-70
2022/05/26 09:51:05;;;;;;;5.18;1.00;;;;;;;17.49;41.99;101089.03;5018349;28;20134;-70
2022/05/26 09:53:41;;;;;;;6.70;1.13;;;;;;;18.24;41.00;101083.88;5018116;28;20076;-70
2022/05/26 09:56:12;;;;;;;7.38;1.42;;;;;;;18.72;39.56;101086.53;5017445;28;20108;-70
2022/05/26 09:58:43;;;;;;;4.88;1.25;;;;;;;19.41;38.35;101086.22;5017994;28;20052;-70
2022/05/26 10:01:37;;;;;;;5.93;1.08;;;;;;;19.25;38.20;101071.16;5017607;28;20081;-70
2022/05/26 10:04:32;;;;;;;5.03;1.30;;;;;;;19.72;36.45;101066.53;5017570;28;20049;-70
2022/05/26 10:07:11;;;;;;;3.38;1.05;;;;;;;19.92;36.37;101068.38;5017443;28;20437;-70
2022/05/26 10:10:17;;;;;;;12.73;1.80;;;;;;;19.17;37.27;101084.13;5017771;28;20133;-70
2022/05/26 10:12:58;;;;;;;8.13;1.35;;;;;;;19.20;36.57;101072.81;5017191;28;20049;-70
2022/05/26 10:15:51;;;;;;;8.90;1.20;;;;;;;18.78;37.26;101074.84;5017219;28;20100;-70
2022/05/26 10:18:50;;;;;;;5.65;1.50;;;;;;;17.94;39.07;101083.28;5017497;28;20049;-70
2022/05/26 10:21:34;;;;;;;6.38;1.10;;;;;;;17.49;39.28;101083.59;5017112;28;20145;-70
2022/05/26 10:24:26;;;;;;;8.18;1.25;;;;;;;17.31;40.27;101085.94;5022801;28;20148;-70
2022/05/26 10:27:07;;;;;;;8.07;1.85;;;;;;;16.89;41.76;101088.47;5037166;28;20140;-70
2022/05/26 10:29:47;;;;;;;5.35;1.25;;;;;;;16.59;42.61;101085.00;5037437;28;20446;-70
2022/05/26 10:32:25;;;;;;;4.80;1.65;;;;;;;16.70;43.09;101091.78;5037182;28;20073;-70
2022/05/26 10:35:16;;;;;;;3.72;1.17;;;;;;;16.56;43.50;101090.81;5037336;28;20494;-70
2022/05/26 10:38:02;;;;;;;3.80;1.27;;;;;;;16.29;44.34;101088.78;5036880;28;20083;-71
2022/05/26 10:40:56;;;;;;;5.97;1.42;;;;;;;16.30;44.49;101095.88;5037067;28;20509;-70
2022/05/26 10:43:42;;;;;;;4.68;1.38;;;;;;;16.26;44.46;101087.28;5037453;28;20136;-69
2022/05/26 10:46:09;;;;;;;5.38;1.30;;;;;;;16.15;44.75;101096.72;5037620;28;20133;-71
2022/05/26 10:49:03;;;;;;;5.13;1.30;;;;;;;16.14;44.47;101088.81;5036990;28;20050;-71
2022/05/26 10:51:37;;;;;;;4.90;1.45;;;;;;;16.39;44.17;101082.03;5026968;28;20088;-70
2022/05/26 10:54:10;;;;;;;15.35;2.78;;;;;;;16.84;44.01;101084.66;5042716;28;20548;-69
2022/05/26 10:56:52;;;;;;;5.00;1.58;;;;;;;16.90;43.44;101084.72;5037227;28;20444;-74
2022/05/26 10:59:39;;;;;;;6.70;1.67;;;;;;;16.64;44.49;101079.88;5036508;28;20132;-73
2022/05/26 11:02:12;;;;;;;6.13;1.30;;;;;;;16.55;44.28;101072.06;5036472;28;20144;-73
2022/05/26 11:04:41;;;;;;;11.48;2.15;;;;;;;17.05;43.68;101079.22;5036484;28;20053;-74
2022/05/26 11:07:21;;;;;;;4.47;1.55;;;;;;;17.35;42.89;101077.22;5035681;28;20119;-73
2022/05/26 11:10:04;;;;;;;7.07;1.52;;;;;;;17.55;42.28;101081.97;5036208;28;20069;-73
2022/05/26 11:12:41;;;;;;;8.38;1.55;;;;;;;17.51;42.08;101069.81;5035930;28;20568;-74
2022/05/26 11:18:21;;;;;;;7.90;1.92;;;;;;;17.26;41.89;101067.53;5035373;28;20046;-75
2022/05/26 11:20:53;;;;;;;5.72;1.70;;;;;;;17.34;41.65;101072.00;5035960;28;20132;-73
2022/05/26 11:23:24;;;;;;;8.95;1.30;;;;;;;17.75;41.36;101079.38;5035430;28;20452;-73
2022/05/26 11:25:51;;;;;;;4.63;1.52;;;;;;;18.06;38.67;101074.38;5036882;28;20083;-75
2022/05/26 11:28:35;;;;;;;9.68;1.40;;;;;;;18.68;37.65;101074.41;5017812;28;20460;-73
2022/05/26 11:36:38;;;;;;;3.60;1.20;;;;;;;19.08;37.24;101080.78;5035430;28;20140;-73
2022/05/26 11:39:16;;;;;;;4.13;1.50;;;;;;;18.05;38.86;101077.25;5035668;28;20472;-73
2022/05/26 11:41:57;;;;;;;7.90;1.85;;;;;;;17.55;40.17;101084.69;5035440;28;20458;-74
2022/05/26 11:44:40;;;;;;;5.30;1.50;;;;;;;17.11;40.85;101074.91;5035719;28;20053;-73
2022/05/26 11:47:16;;;;;;;7.95;1.77;;;;;;;16.83;42.09;101083.81;5035858;28;20053;-74
2022/05/26 11:49:42;;;;;;;5.85;1.73;;;;;;;16.68;42.01;101085.75;5034654;28;20045;-73
2022/05/26 11:52:24;;;;;;;5.57;1.63;;;;;;;16.32;41.00;101078.41;5035315;28;20428;-74
2022/05/26 11:54:53;;;;;;;;;;;;;;;16.67;39.35;101075.91;5035720;28;20553;-74
2022/05/26 11:57:46;;;;;;;10.00;1.80;;;;;;;16.62;38.58;101079.22;5034990;28;20007;-74
2022/05/26 12:00:16;;;;;;;3.85;1.17;;;;;;;16.73;39.04;101082.44;5031935;28;20075;-73
2022/05/26 12:03:33;;;;;;;6.07;1.60;;;;;;;17.10;39.03;101079.50;5035392;28;20107;-74
2022/05/26 12:06:04;;;;;;;10.60;1.40;;;;;;;17.03;38.99;101086.72;5034993;28;20291;-72
2022/05/26 12:08:37;;;;;;;10.95;1.65;;;;;;;16.95;40.03;101072.44;5035176;28;20413;-73
2022/05/26 12:11:07;;;;;;;12.77;1.73;;;;;;;17.05;39.20;101079.22;5035115;28;20133;-73
2022/05/26 12:13:36;;;;;;;6.43;1.58;;;;;;;16.92;39.52;101070.13;5034892;28;20057;-73
2022/05/26 12:16:18;;;;;;;6.00;1.60;;;;;;;16.75;41.00;101066.81;5035165;28;20129;-73
2022/05/26 12:18:58;;;;;;;6.40;1.63;;;;;;;16.50;41.80;101078.03;5034884;28;20049;-73
2022/05/26 12:21:27;;;;;;;6.88;1.55;;;;;;;16.37;41.55;101064.31;5034609;28;20103;-73
2022/05/26 12:24:33;;;;;;;7.85;1.77;;;;;;;16.70;40.70;101058.44;5034393;28;20049;-73
2022/05/26 12:27:01;;;;;;;3.53;1.00;;;;;;;16.72;41.10;101067.25;5034746;28;20480;-73
2022/05/26 12:30:01;;;;;;;4.80;1.30;;;;;;;16.77;41.51;101064.78;5035443;28;20433;-72
2022/05/26 12:32:32;;;;;;;7.40;1.48;;;;;;;16.75;41.39;101064.13;5035555;28;20053;-74
2022/05/26 12:35:09;;;;;;;5.55;1.38;;;;;;;16.47;41.43;101056.72;5017145;28;20069;-74